Time;durP1;ratioP1;P1;durP2;ratioP2;P2;SDS_P1;SDS_P2;PMS_P1;PMS_P2;Temp;Humidity;BMP_temperature;BMP_pressure;BME280_temperature;BME280_humidity;BME280_pressure;Samples;Min_cycle;Max_cycle;Signal;HPM_P1;HPM_P2
2023/09/30 00:01:39;;;;;;;16.88;5.85;;;12.10;99.90;;;;;;5117104;27;20370;-58
2023/09/30 00:04:06;;;;;;;17.38;5.63;;;12.10;99.90;;;;;;5135731;27;20050;-61
2023/09/30 00:06:32;;;;;;;14.77;5.70;;;12.10;99.90;;;;;;5135697;27;20084;-59
2023/09/30 00:08:58;;;;;;;12.05;3.30;;;12.10;99.90;;;;;;5135478;27;20122;-60
2023/09/30 00:11:23;;;;;;;12.43;3.63;;;12.00;99.90;;;;;;5135382;27;20587;-60
2023/09/30 00:13:50;;;;;;;12.25;5.30;;;11.90;99.90;;;;;;5135534;27;20474;-59
2023/09/30 00:16:17;;;;;;;13.18;5.13;;;12.00;99.90;;;;;;5135257;27;20043;-60
2023/09/30 00:18:44;;;;;;;18.77;6.45;;;12.00;99.90;;;;;;5134375;27;20115;-61
2023/09/30 00:21:11;;;;;;;17.95;6.20;;;11.90;99.90;;;;;;5134916;27;20470;-60
2023/09/30 00:23:36;;;;;;;15.52;5.90;;;12.10;99.90;;;;;;5135227;27;20039;-57
2023/09/30 00:26:02;;;;;;;16.10;6.18;;;12.00;99.90;;;;;;5134951;27;20390;-59
2023/09/30 00:28:28;;;;;;;17.15;6.18;;;12.00;99.90;;;;;;5135030;27;20035;-59
2023/09/30 00:30:54;;;;;;;14.48;5.72;;;12.00;99.90;;;;;;5134684;27;20035;-62
2023/09/30 00:33:19;;;;;;;17.60;4.07;;;12.00;99.90;;;;;;5134187;27;20581;-62
2023/09/30 00:35:46;;;;;;;16.02;5.95;;;12.00;99.90;;;;;;5134934;27;20069;-59
2023/09/30 00:38:11;;;;;;;22.17;6.10;;;12.10;99.90;;;;;;5134964;27;20423;-60
2023/09/30 00:40:37;;;;;;;16.58;5.75;;;12.00;99.90;;;;;;5115880;27;20081;-60
2023/09/30 00:43:03;;;;;;;20.80;6.20;;;12.10;99.90;;;;;;5134455;27;20143;-58
2023/09/30 00:45:30;;;;;;;17.30;6.22;;;12.00;99.90;;;;;;5134927;27;20474;-64
2023/09/30 00:47:56;;;;;;;15.43;5.25;;;12.10;99.90;;;;;;5116162;27;20121;-60
2023/09/30 00:50:22;;;;;;;12.90;5.40;;;12.10;99.90;;;;;;5134686;27;20111;-61
2023/09/30 00:52:49;;;;;;;11.68;3.45;;;12.00;99.90;;;;;;5135098;27;20030;-61
2023/09/30 00:55:15;;;;;;;22.05;6.18;;;12.00;99.90;;;;;;5134416;27;20074;-60
2023/09/30 00:57:41;;;;;;;18.63;6.05;;;12.00;99.90;;;;;;5134868;27;20435;-62
2023/09/30 01:00:11;;;;;;;12.05;5.75;;;12.00;99.90;;;;;;5133388;27;20090;-60
2023/09/30 01:02:41;;;;;;;19.15;6.10;;;12.00;99.90;;;;;;5116472;27;20039;-61
2023/09/30 01:05:08;;;;;;;15.88;5.63;;;12.00;99.90;;;;;;5134311;27;20090;-61
2023/09/30 01:07:34;;;;;;;15.43;5.50;;;12.00;99.90;;;;;;5133852;27;20054;-60
2023/09/30 01:10:01;;;;;;;14.80;5.78;;;12.00;99.90;;;;;;5134220;27;20183;-62
2023/09/30 01:12:27;;;;;;;11.98;3.53;;;11.90;99.90;;;;;;5134226;27;20039;-59
2023/09/30 01:14:58;;;;;;;16.92;5.70;;;11.90;99.90;;;;;;5134355;27;20039;-62
2023/09/30 01:17:24;;;;;;;17.15;5.50;;;11.90;99.90;;;;;;5134307;27;20066;-62
2023/09/30 01:19:52;;;;;;;14.00;5.53;;;11.90;99.90;;;;;;5134225;27;20042;-60
2023/09/30 01:22:17;;;;;;;14.57;5.13;;;11.90;99.90;;;;;;5134188;27;20039;-59
2023/09/30 01:24:47;;;;;;;16.65;5.50;;;11.90;99.90;;;;;;5133606;27;20500;-62
2023/09/30 01:27:13;;;;;;;15.63;5.72;;;11.90;99.90;;;;;;5133899;27;20031;-59
2023/09/30 01:29:39;;;;;;;16.00;5.78;;;11.90;99.90;;;;;;5133662;27;20530;-60
2023/09/30 01:32:08;;;;;;;15.98;3.75;;;11.90;99.90;;;;;;5133535;27;20113;-59
2023/09/30 01:34:34;;;;;;;12.95;5.40;;;11.90;99.90;;;;;;5133722;27;20043;-58
2023/09/30 01:37:00;;;;;;;12.57;3.22;;;11.90;99.90;;;;;;5133762;27;20080;-58
2023/09/30 01:39:26;;;;;;;15.80;3.75;;;11.80;99.90;;;;;;5115021;27;20031;-62
2023/09/30 01:41:51;;;;;;;17.67;6.50;;;11.80;99.90;;;;;;5133059;27;20489;-63
2023/09/30 01:44:17;;;;;;;13.52;5.70;;;11.90;99.90;;;;;;5133078;27;20062;-60
2023/09/30 01:46:43;;;;;;;13.68;3.78;;;11.90;99.90;;;;;;5114987;27;20125;-59
2023/09/30 01:49:09;;;;;;;11.90;5.78;;;11.90;99.90;;;;;;5133179;27;20031;-61
2023/09/30 01:51:35;;;;;;;16.58;5.55;;;11.80;99.90;;;;;;5133724;27;20043;-60
2023/09/30 01:54:01;;;;;;;18.35;6.22;;;11.90;99.90;;;;;;5133383;27;20390;-60
2023/09/30 01:56:27;;;;;;;17.38;5.95;;;11.90;99.90;;;;;;5133293;27;20039;-60
2023/09/30 01:58:52;;;;;;;15.05;5.72;;;11.80;99.90;;;;;;5132950;27;20074;-60
2023/09/30 02:01:18;;;;;;;16.65;6.05;;;11.80;99.90;;;;;;5132994;27;20463;-59
2023/09/30 02:03:44;;;;;;;16.02;6.05;;;11.90;99.90;;;;;;5132646;27;20034;-60
2023/09/30 02:06:10;;;;;;;18.52;6.18;;;11.80;99.90;;;;;;5132186;27;20042;-61
2023/09/30 02:08:36;;;;;;;18.02;6.18;;;11.80;99.90;;;;;;5133117;27;20027;-59
2023/09/30 02:11:02;;;;;;;15.43;6.00;;;11.80;99.90;;;;;;5132348;27;20035;-63
2023/09/30 02:13:28;;;;;;;14.90;6.22;;;11.80;99.90;;;;;;5114832;27;20034;-62
2023/09/30 02:15:55;;;;;;;17.10;6.25;;;11.70;99.90;;;;;;5114471;27;20447;-62
2023/09/30 02:18:21;;;;;;;17.45;6.57;;;11.80;99.90;;;;;;5133189;27;20103;-58
2023/09/30 02:20:47;;;;;;;15.10;6.47;;;11.70;99.90;;;;;;5114073;27;20039;-60
2023/09/30 02:23:15;;;;;;;13.68;6.43;;;11.70;99.90;;;;;;5132794;27;20288;-61
2023/09/30 02:25:43;;;;;;;16.90;6.53;;;11.70;99.90;;;;;;5132775;27;20128;-59
2023/09/30 02:28:09;;;;;;;19.52;7.78;;;11.70;99.90;;;;;;5132323;27;20039;-58
2023/09/30 02:30:35;;;;;;;19.67;7.40;;;11.70;99.90;;;;;;5132125;27;20039;-60
2023/09/30 02:33:02;;;;;;;20.10;7.30;;;11.70;99.90;;;;;;5132697;27;20467;-62
2023/09/30 02:35:28;;;;;;;19.40;4.00;;;11.80;99.90;;;;;;5132608;27;20071;-59
2023/09/30 02:37:54;;;;;;;15.60;4.15;;;11.80;99.90;;;;;;5132793;27;20043;-63
2023/09/30 02:40:20;;;;;;;12.60;4.50;;;11.70;99.90;;;;;;5132497;27;20139;-61
2023/09/30 02:42:46;;;;;;;15.52;6.80;;;11.60;99.90;;;;;;5114157;27;20038;-60
2023/09/30 02:45:12;;;;;;;18.80;7.18;;;11.60;99.90;;;;;;5132173;27;20056;-58
2023/09/30 02:47:39;;;;;;;17.00;7.43;;;11.70;99.90;;;;;;5132549;27;20378;-59
2023/09/30 02:50:08;;;;;;;16.85;4.43;;;11.60;99.90;;;;;;5113748;27;20042;-60
2023/09/30 02:52:34;;;;;;;16.75;7.68;;;11.70;99.90;;;;;;5131846;27;20144;-62
2023/09/30 02:55:00;;;;;;;10.15;4.00;;;11.70;99.90;;;;;;5131962;27;20088;-60
2023/09/30 02:57:27;;;;;;;16.90;7.30;;;11.60;99.90;;;;;;5113786;27;20047;-59
2023/09/30 02:59:54;;;;;;;22.23;4.78;;;11.60;99.90;;;;;;5109813;28;20047;-63
2023/09/30 03:02:21;;;;;;;15.48;4.68;;;11.70;99.90;;;;;;5110131;28;20542;-60
2023/09/30 03:04:47;;;;;;;15.18;8.05;;;11.60;99.90;;;;;;5110218;28;20552;-65
2023/09/30 03:07:14;;;;;;;16.23;8.20;;;11.60;99.90;;;;;;5111834;28;20042;-60
2023/09/30 03:09:39;;;;;;;17.15;8.23;;;11.60;99.90;;;;;;5111511;28;20044;-60
2023/09/30 03:12:05;;;;;;;15.85;8.30;;;11.60;99.90;;;;;;5106127;28;20066;-62
2023/09/30 03:14:31;;;;;;;15.98;5.00;;;11.60;99.90;;;;;;5091051;28;20036;-59
2023/09/30 03:16:58;;;;;;;18.52;8.73;;;11.60;99.90;;;;;;5089626;28;20028;-62
2023/09/30 03:19:24;;;;;;;19.50;5.72;;;11.70;99.90;;;;;;5091184;28;20424;-59
2023/09/30 03:21:50;;;;;;;19.23;9.07;;;11.50;99.90;;;;;;5091107;28;20028;-61
2023/09/30 03:24:16;;;;;;;20.20;9.98;;;11.50;99.90;;;;;;5089840;28;20032;-59
2023/09/30 03:26:42;;;;;;;22.38;10.23;;;11.60;99.90;;;;;;5090910;28;20032;-61
2023/09/30 03:29:08;;;;;;;17.75;9.48;;;11.60;99.90;;;;;;5090866;28;20039;-59
2023/09/30 03:31:35;;;;;;;18.15;10.60;;;11.60;99.90;;;;;;5088939;28;20043;-57
2023/09/30 03:34:03;;;;;;;22.30;9.93;;;11.60;99.90;;;;;;5088988;28;20068;-59
2023/09/30 03:36:30;;;;;;;20.58;10.25;;;11.50;99.90;;;;;;5089618;28;20043;-61
2023/09/30 03:39:05;;;;;;;16.02;5.53;;;11.50;99.90;;;;;;5090806;28;20415;-58
2023/09/30 03:41:31;;;;;;;16.67;6.00;;;11.60;99.90;;;;;;5090818;28;20114;-58
2023/09/30 03:43:57;;;;;;;17.20;7.25;;;11.50;99.90;;;;;;5090429;28;20046;-57
2023/09/30 03:46:22;;;;;;;17.10;10.90;;;11.40;99.90;;;;;;5090574;28;20043;-60
2023/09/30 03:48:48;;;;;;;20.60;11.63;;;11.50;99.90;;;;;;5090876;28;20064;-60
2023/09/30 03:51:15;;;;;;;19.15;11.82;;;11.50;99.90;;;;;;5090271;28;20039;-61
2023/09/30 03:53:49;;;;;;;20.35;12.52;;;11.50;99.90;;;;;;5090800;28;20124;-58
2023/09/30 03:56:15;;;;;;;17.67;10.77;;;11.50;99.90;;;;;;5089400;28;20028;-59
2023/09/30 03:58:42;;;;;;;19.45;11.40;;;11.60;99.90;;;;;;5097500;28;20039;-58
2023/09/30 04:01:11;;;;;;;16.50;7.30;;;11.60;99.90;;;;;;5131183;28;20130;-60
2023/09/30 04:03:39;;;;;;;20.17;11.50;;;11.60;99.90;;;;;;5131585;28;20039;-60
2023/09/30 04:06:08;;;;;;;17.52;11.77;;;11.50;99.90;;;;;;5130186;28;20031;-59
2023/09/30 04:08:34;;;;;;;19.50;12.27;;;11.60;99.90;;;;;;5131373;28;20482;-60
2023/09/30 04:11:00;;;;;;;19.25;7.40;;;11.50;99.90;;;;;;5131029;28;20096;-58
2023/09/30 04:13:27;;;;;;;23.42;8.43;;;11.60;99.90;;;;;;5113000;28;20035;-59
2023/09/30 04:15:53;;;;;;;21.23;7.75;;;11.50;99.90;;;;;;5131161;28;20035;-59
2023/09/30 04:18:21;;;;;;;19.08;12.30;;;11.40;99.90;;;;;;5131660;28;20534;-58
2023/09/30 04:20:48;;;;;;;23.25;8.32;;;11.40;99.90;;;;;;5130719;28;20070;-59
2023/09/30 04:23:14;;;;;;;17.95;8.48;;;11.50;99.90;;;;;;5112575;28;20043;-59
2023/09/30 04:25:43;;;;;;;22.15;8.07;;;11.40;99.90;;;;;;5130837;28;20040;-61
2023/09/30 04:28:08;;;;;;;22.33;12.63;;;11.50;99.90;;;;;;5113514;28;20470;-61
2023/09/30 04:30:34;;;;;;;21.45;13.70;;;11.50;99.90;;;;;;5130691;28;20095;-61
2023/09/30 04:33:00;;;;;;;21.00;12.93;;;11.40;99.90;;;;;;5112623;27;20503;-62
2023/09/30 04:35:26;;;;;;;20.55;13.13;;;11.40;99.90;;;;;;5134466;27;20046;-58
2023/09/30 04:37:52;;;;;;;21.48;13.32;;;11.60;99.90;;;;;;5135153;27;20035;-61
2023/09/30 04:40:21;;;;;;;23.23;14.32;;;11.40;99.90;;;;;;5134430;27;20479;-60
2023/09/30 04:42:48;;;;;;;19.15;13.60;;;11.50;99.90;;;;;;5134807;27;20477;-61
2023/09/30 04:45:19;;;;;;;24.10;14.77;;;11.50;99.90;;;;;;5134507;27;20075;-60
2023/09/30 04:47:45;;;;;;;21.00;8.80;;;11.40;99.90;;;;;;5134896;27;20053;-62
2023/09/30 04:50:13;;;;;;;22.85;13.77;;;11.40;99.90;;;;;;5134926;27;20035;-60
2023/09/30 04:52:40;;;;;;;18.42;8.23;;;11.30;99.90;;;;;;5134511;27;20039;-60
2023/09/30 04:55:06;;;;;;;18.33;8.13;;;11.30;99.90;;;;;;5134198;27;20039;-59
2023/09/30 04:57:32;;;;;;;25.02;14.50;;;11.30;99.90;;;;;;5116241;27;20043;-62
2023/09/30 04:59:58;;;;;;;22.38;13.40;;;11.40;99.90;;;;;;5115360;27;20055;-61
2023/09/30 05:02:24;;;;;;;24.48;13.85;;;11.30;99.90;;;;;;5134150;27;20059;-61
2023/09/30 05:04:52;;;;;;;21.65;7.40;;;11.30;99.90;;;;;;5134119;27;20124;-61
2023/09/30 05:07:18;;;;;;;23.25;13.63;;;11.30;99.90;;;;;;5134077;27;20035;-60
2023/09/30 05:09:44;;;;;;;24.92;14.48;;;11.30;99.90;;;;;;5133984;27;20037;-58
2023/09/30 05:12:10;;;;;;;18.98;7.97;;;11.40;99.90;;;;;;5115459;27;20047;-60
2023/09/30 05:14:38;;;;;;;27.83;14.93;;;11.40;99.90;;;;;;5115673;27;20043;-63
2023/09/30 05:17:04;;;;;;;23.42;14.20;;;11.30;99.90;;;;;;5115615;27;20047;-59
2023/09/30 05:19:33;;;;;;;23.33;14.52;;;11.40;99.90;;;;;;5134130;27;20118;-63
2023/09/30 05:22:01;;;;;;;19.77;7.72;;;11.30;99.90;;;;;;5134141;27;20044;-59
2023/09/30 05:24:28;;;;;;;25.00;8.10;;;11.30;99.90;;;;;;5134160;27;20035;-61
2023/09/30 05:26:53;;;;;;;25.75;15.07;;;11.30;99.90;;;;;;5133584;27;20039;-59
2023/09/30 05:29:20;;;;;;;20.95;8.13;;;11.30;99.90;;;;;;5133881;27;20084;-61
2023/09/30 05:31:46;;;;;;;25.52;14.77;;;11.20;99.90;;;;;;5133022;27;20106;-60
2023/09/30 05:34:11;;;;;;;20.92;14.45;;;11.30;99.90;;;;;;5134001;27;20066;-59
2023/09/30 05:36:37;;;;;;;24.42;14.75;;;11.20;99.90;;;;;;5133826;27;20074;-61
2023/09/30 05:39:04;;;;;;;24.50;15.27;;;11.30;99.90;;;;;;5115492;27;20435;-60
2023/09/30 05:41:30;;;;;;;16.13;8.25;;;11.30;99.90;;;;;;5133689;27;20385;-59
2023/09/30 05:43:57;;;;;;;26.15;16.15;;;11.30;99.90;;;;;;5133404;27;20027;-61
2023/09/30 05:46:23;;;;;;;28.23;16.00;;;11.20;99.90;;;;;;5132821;27;20039;-59
2023/09/30 05:48:48;;;;;;;25.55;15.98;;;11.30;99.90;;;;;;5131965;27;20107;-60
2023/09/30 05:51:15;;;;;;;29.95;16.52;;;11.20;99.90;;;;;;5132518;27;20490;-61
2023/09/30 05:53:43;;;;;;;26.63;17.30;;;11.40;99.90;;;;;;5131241;27;20077;-61
2023/09/30 05:56:11;;;;;;;27.98;18.00;;;11.30;99.90;;;;;;5132774;27;20142;-60
2023/09/30 05:58:37;;;;;;;27.20;17.20;;;11.30;99.90;;;;;;5112335;27;20059;-63
2023/09/30 06:01:10;;;;;;;29.88;17.48;;;11.30;99.90;;;;;;5131551;27;20051;-63
2023/09/30 06:03:39;;;;;;;30.75;18.95;;;11.30;99.90;;;;;;5110470;27;20099;-61
2023/09/30 06:06:12;;;;;;;27.55;18.73;;;11.40;99.90;;;;;;5131633;27;20042;-59
2023/09/30 06:08:38;;;;;;;24.63;10.13;;;11.40;99.90;;;;;;5113854;27;20039;-59
2023/09/30 06:11:04;;;;;;;27.23;18.67;;;11.40;99.90;;;;;;5133195;27;20035;-61
2023/09/30 06:13:31;;;;;;;32.47;19.65;;;11.20;99.90;;;;;;5132953;27;20091;-61
2023/09/30 06:15:58;;;;;;;31.60;19.25;;;11.20;99.90;;;;;;5133214;27;20039;-63
2023/09/30 06:18:24;;;;;;;31.83;19.58;;;11.40;99.90;;;;;;5132544;27;20146;-60
2023/09/30 06:20:50;;;;;;;33.72;20.33;;;11.30;99.90;;;;;;5132674;27;20134;-62
2023/09/30 06:23:17;;;;;;;23.45;10.55;;;11.40;99.90;;;;;;5132620;27;20607;-60
2023/09/30 06:25:43;;;;;;;31.45;19.25;;;11.40;99.90;;;;;;5114297;27;20103;-61
2023/09/30 06:28:09;;;;;;;32.88;12.50;;;11.40;99.90;;;;;;5132988;27;20046;-62
2023/09/30 06:30:35;;;;;;;29.15;20.73;;;11.50;99.90;;;;;;5130604;27;20378;-62
2023/09/30 06:33:04;;;;;;;33.20;21.92;;;11.40;99.90;;;;;;5132562;27;20034;-60
2023/09/30 06:35:33;;;;;;;31.23;20.75;;;11.40;99.90;;;;;;5133628;27;20035;-61
2023/09/30 06:37:59;;;;;;;31.73;20.80;;;11.60;99.90;;;;;;5132665;27;20402;-60
2023/09/30 06:40:25;;;;;;;32.85;22.63;;;11.70;99.90;;;;;;5127986;27;20035;-61
2023/09/30 06:42:51;;;;;;;27.60;12.68;;;11.60;99.90;;;;;;5123917;27;20041;-61
2023/09/30 06:45:17;;;;;;;29.50;20.63;;;11.80;99.90;;;;;;5124306;27;20049;-62
2023/09/30 06:47:45;;;;;;;34.53;13.63;;;11.80;99.90;;;;;;5124240;27;20035;-60
2023/09/30 06:50:15;;;;;;;30.85;21.90;;;11.70;99.90;;;;;;5123965;27;20039;-60
2023/09/30 06:52:42;;;;;;;34.88;22.50;;;11.90;99.90;;;;;;5122384;27;20427;-62
2023/09/30 06:55:08;;;;;;;28.33;21.08;;;12.00;99.90;;;;;;5124574;27;20027;-60
2023/09/30 06:57:35;;;;;;;33.72;21.67;;;11.80;99.90;;;;;;5123958;27;20046;-61
2023/09/30 07:00:12;;;;;;;31.35;22.15;;;12.00;99.90;;;;;;5123981;27;20066;-62
2023/09/30 07:02:40;;;;;;;32.00;21.27;;;12.10;99.90;;;;;;5124403;27;20143;-60
2023/09/30 07:05:08;;;;;;;31.35;21.63;;;12.00;99.90;;;;;;5123330;27;20364;-62
2023/09/30 07:07:33;;;;;;;33.75;22.25;;;12.00;99.90;;;;;;5121249;27;20045;-61
2023/09/30 07:09:59;;;;;;;36.65;14.15;;;12.20;99.90;;;;;;5123896;27;20406;-61
2023/09/30 07:12:25;;;;;;;36.45;15.00;;;12.30;99.90;;;;;;5089096;27;20092;-64
2023/09/30 07:14:51;;;;;;;36.05;23.30;;;12.20;99.90;;;;;;5124106;27;20130;-60
2023/09/30 07:17:17;;;;;;;34.03;15.90;;;12.20;99.90;;;;;;5123724;27;20030;-60
2023/09/30 07:19:43;;;;;;;37.08;15.98;;;12.20;99.90;;;;;;5123137;27;20493;-58
2023/09/30 07:22:08;;;;;;;35.95;23.70;;;12.40;99.90;;;;;;5105482;27;20031;-62
2023/09/30 07:24:34;;;;;;;36.90;23.13;;;12.40;99.90;;;;;;5122791;27;20090;-62
2023/09/30 07:27:00;;;;;;;32.67;14.77;;;12.50;99.90;;;;;;5105266;27;20031;-59
2023/09/30 07:29:25;;;;;;;34.88;16.38;;;12.50;99.90;;;;;;5122382;27;20059;-60
2023/09/30 07:31:51;;;;;;;42.33;25.10;;;12.30;99.90;;;;;;5123814;27;20110;-61
2023/09/30 07:34:17;;;;;;;33.47;24.63;;;12.40;99.90;;;;;;5128437;27;20574;-63
2023/09/30 07:36:42;;;;;;;35.75;24.70;;;12.40;99.90;;;;;;5112479;28;20508;-62
2023/09/30 07:39:08;;;;;;;37.03;24.98;;;12.60;99.90;;;;;;5111924;28;20050;-60
2023/09/30 07:41:37;;;;;;;39.25;25.90;;;12.50;99.90;;;;;;5129744;28;20031;-60
2023/09/30 07:44:03;;;;;;;34.67;24.83;;;12.70;99.90;;;;;;5131213;28;20035;-59
2023/09/30 07:46:30;;;;;;;33.53;24.73;;;12.60;99.90;;;;;;5132631;27;20442;-59
2023/09/30 07:48:58;;;;;;;37.17;25.85;;;12.90;99.90;;;;;;5131337;28;20046;-60
2023/09/30 07:51:24;;;;;;;37.92;25.73;;;12.70;99.90;;;;;;5112939;28;20422;-59
2023/09/30 07:53:50;;;;;;;35.53;24.70;;;13.00;99.90;;;;;;5131024;28;20035;-59
2023/09/30 07:56:16;;;;;;;34.75;25.73;;;13.00;99.90;;;;;;5130375;27;20466;-60
2023/09/30 07:58:42;;;;;;;35.63;25.58;;;13.00;99.90;;;;;;5131368;28;20062;-59
2023/09/30 08:01:08;;;;;;;35.42;25.35;;;13.10;99.90;;;;;;5130605;28;20075;-59
2023/09/30 08:03:34;;;;;;;35.63;25.70;;;13.20;99.90;;;;;;5112688;28;20080;-58
2023/09/30 08:06:00;;;;;;;36.90;26.33;;;13.10;99.90;;;;;;5130922;28;20640;-60
2023/09/30 08:08:26;;;;;;;38.08;18.48;;;13.40;99.90;;;;;;5131392;27;20050;-60
2023/09/30 08:10:55;;;;;;;45.97;20.52;;;13.30;99.90;;;;;;5135192;27;20409;-59
2023/09/30 08:13:22;;;;;;;39.03;28.33;;;13.50;99.90;;;;;;5135726;27;20050;-60
2023/09/30 08:15:51;;;;;;;37.25;27.65;;;13.50;99.90;;;;;;5134308;27;20091;-61
2023/09/30 08:18:17;;;;;;;36.47;27.05;;;13.70;99.90;;;;;;5135187;27;20471;-61
2023/09/30 08:20:43;;;;;;;42.45;28.45;;;13.80;99.90;;;;;;5135028;27;20122;-59
2023/09/30 08:23:08;;;;;;;34.47;26.15;;;13.80;99.90;;;;;;5135090;27;20035;-59
2023/09/30 08:25:34;;;;;;;37.60;26.58;;;13.80;99.90;;;;;;5116369;27;20035;-60
2023/09/30 08:28:00;;;;;;;35.40;25.45;;;14.00;99.90;;;;;;5135275;27;20064;-60
2023/09/30 08:30:26;;;;;;;40.60;18.80;;;14.00;99.90;;;;;;5134884;27;20123;-64
2023/09/30 08:32:51;;;;;;;37.70;25.17;;;14.20;99.90;;;;;;5134728;27;20114;-61
2023/09/30 08:35:17;;;;;;;39.67;18.58;;;14.20;99.90;;;;;;5116769;27;20043;-62
2023/09/30 08:37:43;;;;;;;34.65;24.00;;;14.40;99.90;;;;;;5135215;27;20083;-62
2023/09/30 08:40:10;;;;;;;35.60;23.83;;;14.50;99.90;;;;;;5134597;27;20039;-61
2023/09/30 08:42:35;;;;;;;32.45;22.48;;;14.70;99.90;;;;;;5135027;27;20110;-61
2023/09/30 08:45:04;;;;;;;33.38;22.45;;;14.60;99.90;;;;;;5135051;27;20110;-59
2023/09/30 08:47:30;;;;;;;29.00;20.42;;;14.60;99.90;;;;;;5134662;27;20043;-59
2023/09/30 08:50:05;;;;;;;28.20;20.20;;;14.90;99.90;;;;;;5134971;27;20403;-62
2023/09/30 08:52:33;;;;;;;29.25;16.15;;;14.90;99.90;;;;;;5134917;27;20035;-60
2023/09/30 08:54:59;;;;;;;31.75;15.90;;;15.10;99.90;;;;;;5134665;27;20501;-62
2023/09/30 08:57:25;;;;;;;33.28;16.75;;;15.20;99.90;;;;;;5134575;27;20035;-60
2023/09/30 08:59:52;;;;;;;28.92;20.00;;;15.10;99.90;;;;;;5133917;27;20096;-61
2023/09/30 09:02:18;;;;;;;24.38;18.80;;;15.20;99.90;;;;;;5134056;27;20035;-61
2023/09/30 09:04:49;;;;;;;31.33;22.20;;;15.50;99.90;;;;;;5133004;27;20116;-60
2023/09/30 09:07:15;;;;;;;26.45;19.63;;;15.40;99.90;;;;;;5116064;27;20049;-59
2023/09/30 09:09:41;;;;;;;28.60;18.60;;;15.70;99.90;;;;;;5134286;27;20035;-62
2023/09/30 09:12:19;;;;;;;20.98;15.13;;;15.80;99.90;;;;;;5134430;27;20043;-60
2023/09/30 09:14:46;;;;;;;22.00;13.65;;;15.90;99.90;;;;;;5134202;27;20058;-61
2023/09/30 09:17:12;;;;;;;24.88;13.23;;;15.90;99.90;;;;;;5134383;27;20131;-62
2023/09/30 09:19:37;;;;;;;22.88;16.08;;;16.10;99.90;;;;;;5134222;27;20434;-60
2023/09/30 09:22:07;;;;;;;20.15;14.13;;;16.20;99.90;;;;;;5133939;27;20093;-62
2023/09/30 09:24:38;;;;;;;21.35;14.20;;;16.30;99.90;;;;;;5134387;27;20035;-59
2023/09/30 09:27:08;;;;;;;21.52;14.40;;;16.30;99.90;;;;;;5133941;27;20035;-61
2023/09/30 09:29:39;;;;;;;22.27;14.65;;;16.40;99.90;;;;;;5134048;27;20035;-61
2023/09/30 09:32:15;;;;;;;23.23;13.93;;;16.60;99.90;;;;;;5133525;27;20354;-61
2023/09/30 09:34:43;;;;;;;20.98;12.77;;;16.70;99.90;;;;;;5115765;27;20042;-61
2023/09/30 09:37:17;;;;;;;21.33;10.05;;;16.70;99.90;;;;;;5133558;27;20038;-58
2023/09/30 09:39:55;;;;;;;22.42;12.02;;;16.80;99.90;;;;;;5115544;27;20085;-63
2023/09/30 09:42:29;;;;;;;23.08;13.82;;;16.90;99.90;;;;;;5133747;27;20478;-62
2023/09/30 09:44:58;;;;;;;17.17;11.60;;;17.00;99.90;;;;;;5115443;27;20367;-59
2023/09/30 09:47:24;;;;;;;18.70;12.32;;;17.10;99.90;;;;;;5114849;27;20760;-61
2023/09/30 09:49:54;;;;;;;19.95;12.32;;;17.10;99.90;;;;;;5133891;27;20042;-61
2023/09/30 09:52:20;;;;;;;15.10;10.50;;;17.30;99.90;;;;;;5133325;27;20401;-59
2023/09/30 09:54:47;;;;;;;19.38;11.50;;;17.30;99.90;;;;;;5133563;27;20374;-61
2023/09/30 09:57:14;;;;;;;20.58;12.20;;;17.40;99.90;;;;;;5133335;27;20062;-63
2023/09/30 09:59:42;;;;;;;16.08;10.20;;;17.50;99.90;;;;;;5114836;27;20398;-61
2023/09/30 10:02:14;;;;;;;18.35;9.15;;;17.60;99.90;;;;;;5133006;27;20490;-61
2023/09/30 10:04:44;;;;;;;23.10;9.73;;;17.70;99.90;;;;;;5132626;27;20475;-60
2023/09/30 10:07:29;;;;;;;17.38;9.07;;;17.80;99.90;;;;;;5133079;27;20043;-63
2023/09/30 10:09:58;;;;;;;15.38;9.73;;;17.80;99.90;;;;;;5132700;27;20056;-61
2023/09/30 10:12:26;;;;;;;14.82;7.63;;;17.90;99.90;;;;;;5114386;27;20031;-59
2023/09/30 10:14:52;;;;;;;16.02;8.23;;;18.00;99.90;;;;;;5133302;27;20067;-59
2023/09/30 10:17:18;;;;;;;12.77;7.05;;;18.10;99.90;;;;;;5133207;27;20042;-59
2023/09/30 10:20:06;;;;;;;16.60;7.05;;;18.20;99.90;;;;;;5132661;27;20505;-62
2023/09/30 10:22:32;;;;;;;14.02;6.35;;;18.20;99.90;;;;;;5132878;27;20043;-61
2023/09/30 10:24:59;;;;;;;12.48;5.45;;;18.40;99.90;;;;;;5132941;27;20542;-61
2023/09/30 10:27:25;;;;;;;15.35;7.28;;;18.50;99.90;;;;;;5132971;27;20042;-62
2023/09/30 10:30:10;;;;;;;13.02;5.47;;;18.50;99.90;;;;;;5132545;27;20031;-63
2023/09/30 10:32:51;;;;;;;10.57;4.65;;;18.50;99.90;;;;;;5132128;27;20126;-62
2023/09/30 10:35:17;;;;;;;10.52;3.80;;;18.60;99.90;;;;;;5132475;27;20042;-62
2023/09/30 10:37:44;;;;;;;11.65;3.17;;;18.70;99.90;;;;;;5114208;27;20039;-61
2023/09/30 10:40:29;;;;;;;8.20;2.67;;;18.80;99.90;;;;;;5132477;27;20095;-60
2023/09/30 10:42:56;;;;;;;6.88;1.90;;;18.90;99.90;;;;;;5132711;27;20031;-62
2023/09/30 10:45:42;;;;;;;8.70;1.73;;;18.90;99.90;;;;;;5113765;27;20035;-61
2023/09/30 10:48:34;;;;;;;10.85;3.00;;;18.90;99.90;;;;;;5132360;27;20091;-59
2023/09/30 10:51:10;;;;;;;8.27;2.35;;;19.00;99.90;;;;;;5131011;27;20046;-60
2023/09/30 10:53:45;;;;;;;7.45;2.13;;;19.20;99.90;;;;;;5132286;27;20039;-62
2023/09/30 10:56:11;;;;;;;8.23;1.58;;;19.20;99.90;;;;;;5132491;27;20031;-62
2023/09/30 10:58:57;;;;;;;9.98;2.63;;;19.20;99.90;;;;;;5131921;27;20055;-64
2023/09/30 11:01:24;;;;;;;7.00;1.70;;;19.10;99.90;;;;;;5131395;27;20043;-61
2023/09/30 11:03:58;;;;;;;9.35;2.05;;;19.10;99.90;;;;;;5096643;27;20071;-63
2023/09/30 11:06:24;;;;;;;8.60;1.98;;;19.20;99.90;;;;;;5132157;27;20043;-62
2023/09/30 11:08:54;;;;;;;6.05;1.83;;;19.00;99.90;;;;;;5132375;27;20027;-61
2023/09/30 11:12:01;;;;;;;9.35;1.77;;;19.00;99.90;;;;;;5131705;27;20126;-61
2023/09/30 11:14:32;;;;;;;8.30;1.50;;;19.10;99.90;;;;;;5109123;27;20066;-60
2023/09/30 11:17:01;;;;;;;7.15;1.67;;;19.20;99.90;;;;;;5113657;27;20067;-59
2023/09/30 11:19:35;;;;;;;7.15;1.77;;;19.20;99.90;;;;;;5131822;27;20498;-61
2023/09/30 11:22:00;;;;;;;;;;;19.30;99.90;;;;;;5132560;27;20061;-63
2023/09/30 11:24:28;;;;;;;7.22;1.85;;;19.50;99.90;;;;;;5131963;27;19920;-62
2023/09/30 11:26:58;;;;;;;8.00;1.73;;;19.70;99.90;;;;;;5131943;27;20071;-65
2023/09/30 11:29:25;;;;;;;7.80;1.73;;;19.90;99.90;;;;;;5132092;27;20437;-60
2023/09/30 11:31:53;;;;;;;8.73;1.55;;;20.10;99.90;;;;;;5131774;27;20035;-63
2023/09/30 11:34:19;;;;;;;6.60;1.58;;;20.30;99.90;;;;;;5114188;28;20117;-61
2023/09/30 11:36:50;;;;;;;8.75;1.67;;;20.50;99.90;;;;;;5113064;28;20136;-60
2023/09/30 11:39:25;;;;;;;8.48;1.70;;;20.70;99.90;;;;;;5131273;28;20078;-62
2023/09/30 11:41:52;;;;;;;9.63;1.90;;;20.80;99.90;;;;;;5131280;28;20078;-63
2023/09/30 11:44:18;;;;;;;11.00;2.45;;;20.90;99.90;;;;;;5133922;27;20031;-61
2023/09/30 11:47:00;;;;;;;8.80;1.92;;;21.20;99.90;;;;;;5136035;27;20482;-59
2023/09/30 11:49:34;;;;;;;9.38;2.17;;;21.40;99.90;;;;;;5135921;27;20039;-60
2023/09/30 11:52:02;;;;;;;8.75;1.83;;;21.50;99.90;;;;;;5117136;27;20080;-62
2023/09/30 11:54:33;;;;;;;8.23;1.60;;;21.40;99.90;;;;;;5117560;27;20157;-60
2023/09/30 11:57:00;;;;;;;7.70;2.00;;;21.10;99.90;;;;;;5100260;27;20127;-60
2023/09/30 11:59:26;;;;;;;8.57;1.73;;;20.80;99.90;;;;;;5135054;27;20050;-60
2023/09/30 12:01:51;;;;;;;8.45;1.70;;;20.50;99.90;;;;;;5135230;27;20039;-63
2023/09/30 12:04:21;;;;;;;8.90;1.70;;;20.30;99.90;;;;;;5135607;27;20093;-59
2023/09/30 12:06:50;;;;;;;6.95;1.95;;;20.20;99.90;;;;;;5135491;27;20043;-62
2023/09/30 12:09:22;;;;;;;7.47;2.35;;;20.10;99.90;;;;;;5135548;27;20031;-63
2023/09/30 12:11:53;;;;;;;9.20;2.13;;;20.00;99.90;;;;;;5135515;27;20050;-61
2023/09/30 12:14:20;;;;;;;6.72;2.03;;;20.00;99.90;;;;;;5135484;27;20039;-62
2023/09/30 12:16:47;;;;;;;6.95;1.73;;;20.10;99.90;;;;;;5135606;27;20172;-60
2023/09/30 12:19:15;;;;;;;9.52;2.05;;;20.20;99.90;;;;;;5117060;27;20074;-63
2023/09/30 12:21:41;;;;;;;7.45;1.98;;;20.20;99.90;;;;;;5134960;27;20047;-62
2023/09/30 12:24:09;;;;;;;9.50;1.98;;;20.10;99.90;;;;;;5135316;27;20035;-60
2023/09/30 12:26:36;;;;;;;8.98;2.13;;;20.00;99.90;;;;;;5134963;27;20047;-61
2023/09/30 12:29:03;;;;;;;9.10;2.25;;;19.80;99.90;;;;;;5135205;27;20047;-59
2023/09/30 12:31:28;;;;;;;9.77;2.40;;;19.60;99.90;;;;;;5134515;27;20103;-60
2023/09/30 12:33:54;;;;;;;8.93;2.05;;;19.70;99.90;;;;;;5135356;27;20161;-61
2023/09/30 12:36:24;;;;;;;8.43;2.22;;;19.80;99.90;;;;;;5134959;27;20047;-63